createdAt,value
2022-09-15T00:01:13.667Z,11.27
2022-09-15T00:03:45.950Z,10.82
2022-09-15T00:06:13.748Z,12.13
2022-09-15T00:08:44.785Z,11.90
2022-09-15T00:11:18.287Z,13.43
2022-09-15T00:13:49.236Z,12.73
2022-09-15T00:16:18.632Z,13.98
2022-09-15T00:18:47.258Z,14.20
2022-09-15T00:21:18.640Z,13.32
2022-09-15T00:23:48.166Z,15.27
2022-09-15T00:26:18.600Z,14.20
2022-09-15T00:28:46.259Z,13.38
2022-09-15T00:31:19.537Z,15.10
2022-09-15T00:33:50.070Z,13.90
2022-09-15T00:36:21.410Z,14.43
2022-09-15T00:38:50.305Z,16.30
2022-09-15T00:41:23.187Z,14.50
2022-09-15T00:43:59.636Z,14.43
2022-09-15T00:46:35.725Z,15.38
2022-09-15T00:49:20.633Z,15.27
2022-09-15T00:52:37.845Z,14.23
2022-09-15T00:55:50.302Z,13.73
2022-09-15T00:58:29.436Z,15.20
2022-09-15T01:01:00.920Z,15.18
2022-09-15T01:04:45.488Z,15.45
2022-09-15T01:07:17.894Z,14.05
2022-09-15T01:09:52.539Z,14.57
2022-09-15T01:12:22.652Z,16.05
2022-09-15T01:14:50.093Z,15.63
2022-09-15T01:17:26.251Z,14.90
2022-09-15T01:20:30.579Z,14.63
2022-09-15T01:23:22.605Z,13.65
2022-09-15T01:26:14.570Z,13.60
2022-09-15T01:29:00.681Z,13.45
2022-09-15T01:32:24.909Z,12.70
2022-09-15T01:35:13.145Z,13.93
2022-09-15T01:37:47.058Z,13.65
2022-09-15T01:40:16.166Z,13.88
2022-09-15T01:42:45.936Z,13.38
2022-09-15T01:45:25.230Z,13.43
2022-09-15T01:47:55.010Z,12.85
2022-09-15T01:50:48.725Z,12.82
2022-09-15T01:53:24.527Z,12.45
2022-09-15T01:56:05.445Z,13.32
2022-09-15T01:58:34.083Z,11.80
2022-09-15T02:01:18.830Z,11.38
2022-09-15T02:05:15.812Z,11.00
2022-09-15T02:07:47.702Z,11.25
2022-09-15T02:10:38.876Z,11.57
2022-09-15T02:13:23.296Z,11.02
2022-09-15T02:15:54.165Z,12.07
2022-09-15T02:18:33.030Z,10.65
2022-09-15T02:21:10.334Z,11.57
2022-09-15T02:23:51.240Z,10.70
2022-09-15T02:26:24.944Z,11.98
2022-09-15T02:28:54.490Z,10.02
2022-09-15T02:31:24.750Z,10.23
2022-09-15T02:34:00.311Z,10.30
2022-09-15T02:36:29.658Z,11.30
2022-09-15T02:42:29.914Z,10.20
2022-09-15T02:45:11.758Z,10.60
2022-09-15T02:47:54.297Z,11.00
2022-09-15T02:50:32.068Z,14.20
2022-09-15T02:57:10.553Z,11.50
2022-09-15T02:59:56.341Z,11.82
2022-09-15T03:06:52.257Z,12.27
2022-09-15T03:09:28.139Z,10.48
2022-09-15T03:13:20.765Z,11.35
2022-09-15T03:15:52.223Z,12.05
2022-09-15T03:18:22.767Z,11.18
2022-09-15T03:21:05.640Z,12.48
2022-09-15T03:24:28.819Z,11.70
2022-09-15T03:27:14.441Z,11.90
2022-09-15T03:29:48.647Z,12.75
2022-09-15T03:35:52.428Z,11.70
2022-09-15T03:38:27.423Z,11.65
2022-09-15T03:41:04.460Z,11.70
2022-09-15T03:43:33.845Z,11.57
2022-09-15T03:46:01.845Z,12.82
2022-09-15T03:48:32.420Z,11.70
2022-09-15T03:51:00.173Z,12.23
2022-09-15T03:53:33.016Z,11.35
2022-09-15T03:56:17.930Z,11.23
2022-09-15T03:58:45.464Z,13.25
2022-09-15T04:01:15.494Z,11.20
2022-09-15T04:03:48.863Z,7.20
2022-09-15T04:06:20.303Z,5.75
2022-09-15T04:11:22.879Z,4.22
2022-09-15T04:13:50.864Z,4.20
2022-09-15T04:16:20.431Z,3.85
2022-09-15T04:18:47.968Z,3.60
2022-09-15T04:21:21.419Z,3.70
2022-09-15T04:23:54.600Z,3.83
2022-09-15T04:26:34.387Z,3.33
2022-09-15T04:29:14.495Z,3.78
2022-09-15T04:32:01.260Z,3.47
2022-09-15T04:34:40.582Z,3.10
2022-09-15T04:37:13.970Z,2.90
2022-09-15T04:39:44.990Z,2.75
2022-09-15T04:42:40.309Z,2.80
2022-09-15T04:45:08.698Z,3.13
2022-09-15T04:47:36.046Z,2.88
2022-09-15T04:50:16.516Z,2.80
2022-09-15T04:52:48.539Z,2.60
2022-09-15T04:55:17.072Z,2.72
2022-09-15T04:57:44.258Z,3.80
2022-09-15T05:00:13.669Z,3.00
2022-09-15T05:03:05.435Z,4.22
2022-09-15T05:05:44.711Z,2.17
2022-09-15T05:08:12.827Z,2.25
2022-09-15T05:10:40.470Z,2.60
2022-09-15T05:13:11.318Z,2.90
2022-09-15T05:15:40.280Z,2.75
2022-09-15T05:18:15.022Z,2.78
2022-09-15T05:20:42.742Z,2.70
2022-09-15T05:23:12.068Z,2.50
2022-09-15T05:25:40.683Z,2.40
2022-09-15T05:28:10.934Z,2.42
2022-09-15T05:30:44.209Z,2.30
2022-09-15T05:33:13.073Z,2.60
2022-09-15T05:38:18.077Z,3.33
2022-09-15T05:41:08.918Z,2.47
2022-09-15T05:43:43.804Z,2.83
2022-09-15T05:46:40.699Z,2.75
2022-09-15T05:49:29.484Z,2.90
2022-09-15T05:52:16.417Z,2.85
2022-09-15T05:58:29.196Z,11.60
2022-09-15T06:01:11.964Z,2.90
2022-09-15T06:03:46.411Z,2.80
2022-09-15T06:06:35.929Z,2.88
2022-09-15T06:09:47.819Z,2.92
2022-09-15T06:12:36.472Z,6.93
2022-09-15T06:15:14.964Z,3.45
2022-09-15T06:44:05.191Z,2.42
2022-09-15T06:49:57.618Z,3.00
2022-09-15T06:53:17.671Z,2.50
2022-09-15T06:56:07.531Z,3.22
2022-09-15T06:58:41.828Z,2.97
2022-09-15T07:01:34.124Z,2.90
2022-09-15T07:04:20.412Z,3.50
2022-09-15T07:07:09.625Z,3.35
2022-09-15T07:09:53.450Z,3.15
2022-09-15T07:13:05.312Z,3.45
2022-09-15T07:15:41.005Z,3.08
2022-09-15T07:18:29.135Z,2.67
2022-09-15T07:21:19.015Z,4.18
2022-09-15T07:23:56.529Z,2.33
2022-09-15T07:27:04.512Z,5.47
2022-09-15T07:30:14.862Z,2.60
2022-09-15T07:33:29.962Z,2.50
2022-09-15T07:36:34.674Z,2.50
2022-09-15T07:39:32.534Z,2.00
2022-09-15T07:42:46.772Z,2.05
2022-09-15T07:47:07.707Z,3.17
2022-09-15T07:49:47.122Z,2.03
2022-09-15T07:52:43.387Z,3.72
2022-09-15T07:56:09.111Z,2.58
2022-09-15T07:59:05.278Z,2.92
2022-09-15T08:01:50.522Z,1.90
2022-09-15T08:08:10.834Z,2.85
2022-09-15T08:11:37.337Z,3.08
2022-09-15T08:17:51.609Z,2.20
2022-09-15T08:20:42.940Z,2.47
2022-09-15T08:23:31.692Z,4.13
2022-09-15T08:27:22.491Z,3.03
2022-09-15T08:29:43.300Z,4.32
2022-09-15T08:32:45.141Z,3.55
2022-09-15T08:38:23.087Z,2.33
2022-09-15T08:41:07.892Z,2.03
2022-09-15T08:44:15.183Z,2.20
2022-09-15T08:47:27.764Z,2.42
2022-09-15T08:50:44.251Z,3.35
2022-09-15T08:57:53.012Z,9.93
2022-09-15T09:00:35.829Z,3.53
2022-09-15T09:04:00.497Z,2.35
2022-09-15T09:07:03.749Z,2.78
2022-09-15T09:10:03.947Z,2.92
2022-09-15T09:13:52.204Z,4.68
2022-09-15T09:18:03.231Z,2.15
2022-09-15T09:20:35.373Z,2.10
2022-09-15T09:23:23.772Z,1.65
2022-09-15T09:25:55.573Z,1.90
2022-09-15T09:31:48.567Z,2.63
2022-09-15T09:34:56.302Z,2.75
2022-09-15T09:37:53.325Z,1.95
2022-09-15T09:41:02.080Z,1.98
2022-09-15T09:43:42.552Z,2.00
2022-09-15T09:46:48.910Z,2.08
2022-09-15T09:49:24.257Z,3.35
2022-09-15T09:52:05.217Z,3.60
2022-09-15T09:54:38.122Z,2.40
2022-09-15T09:57:35.771Z,1.73
2022-09-15T10:00:35.907Z,2.08
2022-09-15T10:03:34.897Z,2.67
2022-09-15T10:06:08.815Z,3.15
2022-09-15T10:08:59.744Z,4.18
2022-09-15T10:11:48.011Z,2.75
2022-09-15T10:14:26.910Z,2.05
2022-09-15T10:17:14.314Z,2.85
2022-09-15T10:20:17.764Z,2.88
2022-09-15T10:23:28.125Z,2.70
2022-09-15T10:26:24.660Z,2.60
2022-09-15T10:32:35.277Z,3.58
2022-09-15T10:35:23.072Z,3.47
2022-09-15T10:38:26.818Z,2.70
2022-09-15T10:41:26.396Z,2.55
2022-09-15T10:44:20.684Z,2.28
2022-09-15T10:47:18.284Z,2.92
2022-09-15T10:50:19.221Z,2.92
2022-09-15T10:53:11.093Z,3.17
2022-09-15T10:56:33.811Z,3.60
2022-09-15T10:59:15.587Z,3.50
2022-09-15T11:02:03.205Z,3.78
2022-09-15T11:04:49.562Z,4.57
2022-09-15T11:07:59.156Z,4.25
2022-09-15T11:11:27.571Z,4.80
2022-09-15T11:14:23.685Z,4.82
2022-09-15T11:17:31.689Z,4.63
2022-09-15T11:20:58.840Z,4.47
2022-09-15T11:23:48.638Z,4.07
2022-09-15T11:26:33.739Z,4.00
2022-09-15T11:30:18.162Z,4.25
2022-09-15T11:33:10.325Z,3.50
2022-09-15T11:36:15.717Z,4.28
2022-09-15T11:39:13.724Z,4.32
2022-09-15T11:42:09.186Z,4.40
2022-09-15T11:44:50.819Z,4.78
2022-09-15T11:47:50.424Z,4.32
2022-09-15T11:50:33.705Z,3.83
2022-09-15T11:54:40.124Z,4.18
2022-09-15T11:57:00.133Z,3.90
2022-09-15T12:00:00.683Z,4.32
2022-09-15T12:02:51.463Z,3.70
2022-09-15T12:05:44.624Z,5.20
2022-09-15T12:08:26.075Z,4.13
2022-09-15T12:11:02.701Z,4.80
2022-09-15T12:14:01.538Z,4.57
2022-09-15T12:17:27.097Z,5.03
2022-09-15T12:20:21.914Z,5.28
2022-09-15T12:23:35.213Z,4.65
2022-09-15T12:26:20.467Z,4.38
2022-09-15T12:28:59.997Z,4.72
2022-09-15T12:31:37.119Z,4.50
2022-09-15T12:36:16.129Z,4.53
2022-09-15T12:37:46.336Z,3.90
2022-09-15T12:40:28.054Z,4.38
2022-09-15T12:43:01.542Z,4.88
2022-09-15T12:45:44.256Z,4.70
2022-09-15T12:48:27.386Z,4.38
2022-09-15T12:51:08.696Z,7.07
2022-09-15T12:54:04.996Z,4.68
2022-09-15T12:56:37.071Z,6.50
2022-09-15T12:59:15.494Z,5.70
2022-09-15T13:01:59.115Z,4.93
2022-09-15T13:04:59.143Z,6.65
2022-09-15T13:07:39.566Z,4.85
2022-09-15T13:10:41.483Z,4.80
2022-09-15T13:13:56.531Z,4.82
2022-09-15T13:19:26.545Z,4.63
2022-09-15T13:22:27.732Z,5.13
2022-09-15T13:25:15.856Z,4.65
2022-09-15T13:27:55.371Z,4.78
2022-09-15T13:31:37.374Z,11.35
2022-09-15T13:40:40.759Z,4.35
2022-09-15T13:43:41.193Z,3.90
2022-09-15T13:46:42.103Z,5.30
2022-09-15T13:49:33.317Z,4.05
2022-09-15T13:52:16.736Z,4.55
2022-09-15T13:55:29.178Z,4.15
2022-09-15T14:01:06.817Z,4.10
2022-09-15T14:04:00.066Z,5.55
2022-09-15T14:06:39.372Z,3.20
2022-09-15T14:09:24.355Z,3.00
2022-09-15T14:12:24.241Z,3.95
2022-09-15T14:15:01.518Z,3.30
2022-09-15T14:17:44.050Z,3.38
2022-09-15T14:20:35.225Z,3.92
2022-09-15T14:23:21.236Z,3.50
2022-09-15T14:25:49.828Z,3.03
2022-09-15T14:28:31.801Z,3.65
2022-09-15T14:31:54.017Z,3.80
2022-09-15T14:34:08.729Z,2.85
2022-09-15T14:37:04.985Z,2.78
2022-09-15T14:39:53.464Z,3.25
2022-09-15T14:42:33.629Z,3.50
2022-09-15T14:48:30.954Z,4.43
2022-09-15T14:51:47.309Z,2.85
2022-09-15T14:54:33.422Z,2.70
2022-09-15T14:57:09.517Z,3.05
2022-09-15T14:59:52.859Z,3.10
2022-09-15T15:02:41.781Z,3.00
2022-09-15T15:05:20.695Z,2.63
2022-09-15T15:07:49.769Z,3.45
2022-09-15T15:10:26.702Z,2.50
2022-09-15T15:17:12.294Z,2.97
2022-09-15T15:19:44.462Z,2.30
2022-09-15T15:26:29.794Z,5.72
2022-09-15T15:28:57.389Z,3.85
2022-09-15T15:31:30.207Z,3.45
2022-09-15T15:34:00.500Z,2.78
2022-09-15T15:36:29.512Z,2.45
2022-09-15T15:39:04.768Z,2.90
2022-09-15T15:41:42.234Z,2.70
2022-09-15T15:44:17.964Z,3.30
2022-09-15T15:47:02.641Z,2.47
2022-09-15T15:49:32.867Z,3.47
2022-09-15T15:52:04.020Z,2.30
2022-09-15T15:54:33.856Z,2.38
2022-09-15T15:57:26.444Z,2.30
2022-09-15T15:59:59.374Z,2.22
2022-09-15T16:02:27.837Z,7.38
2022-09-15T16:04:57.724Z,2.72
2022-09-15T16:07:31.141Z,2.88
2022-09-15T16:10:01.283Z,2.65
2022-09-15T16:12:32.002Z,3.20
2022-09-15T16:15:02.313Z,2.40
2022-09-15T16:17:29.601Z,3.30
2022-09-15T16:19:57.042Z,3.33
2022-09-15T16:22:26.647Z,3.10
2022-09-15T16:24:57.399Z,3.90
2022-09-15T16:27:29.927Z,3.10
2022-09-15T16:29:57.306Z,3.40
2022-09-15T16:36:36.592Z,3.65
2022-09-15T16:39:09.435Z,3.45
2022-09-15T16:42:01.937Z,3.50
2022-09-15T16:44:29.450Z,5.93
2022-09-15T16:46:56.812Z,4.13
2022-09-15T16:49:25.209Z,3.03
2022-09-15T16:52:21.803Z,3.38
2022-09-15T16:54:49.266Z,2.90
2022-09-15T16:57:18.218Z,3.00
2022-09-15T16:59:45.905Z,3.17
2022-09-15T17:03:30.430Z,3.67
2022-09-15T17:05:59.958Z,2.92
2022-09-15T17:08:30.293Z,3.30
2022-09-15T17:11:00.969Z,3.30
2022-09-15T17:13:31.595Z,3.00
2022-09-15T17:16:00.243Z,2.83
2022-09-15T17:18:28.729Z,3.50
2022-09-15T17:20:56.082Z,3.58
2022-09-15T17:23:25.032Z,3.35
2022-09-15T17:25:59.165Z,4.13
2022-09-15T17:28:31.615Z,3.20
2022-09-15T17:31:01.362Z,3.25
2022-09-15T17:33:31.258Z,3.53
2022-09-15T17:35:59.681Z,4.75
2022-09-15T17:38:27.680Z,6.90
2022-09-15T17:40:55.712Z,4.40
2022-09-15T17:43:26.747Z,4.07
2022-09-15T17:45:54.652Z,4.63
2022-09-15T17:48:22.765Z,3.60
2022-09-15T17:50:50.734Z,4.00
2022-09-15T17:53:24.666Z,4.05
2022-09-15T17:55:54.340Z,3.90
2022-09-15T17:58:24.427Z,3.72
2022-09-15T18:00:54.713Z,3.95
2022-09-15T18:03:27.809Z,3.30
2022-09-15T18:05:56.529Z,5.22
2022-09-15T18:08:24.059Z,4.28
2022-09-15T18:10:51.780Z,4.60
2022-09-15T18:13:22.983Z,5.05
2022-09-15T18:15:51.275Z,4.00
2022-09-15T18:18:24.043Z,4.97
2022-09-15T18:20:53.950Z,4.90
2022-09-15T18:23:24.439Z,5.18
2022-09-15T18:25:52.838Z,5.20
2022-09-15T18:28:20.404Z,5.50
2022-09-15T18:30:50.204Z,5.10
2022-09-15T18:33:42.853Z,5.43
2022-09-15T18:36:15.002Z,5.45
2022-09-15T18:38:44.934Z,5.45
2022-09-15T18:41:12.513Z,5.47
2022-09-15T18:43:43.932Z,5.43
2022-09-15T18:46:11.627Z,5.68
2022-09-15T18:48:42.552Z,6.03
2022-09-15T18:51:11.998Z,4.93
2022-09-15T18:53:44.077Z,5.93
2022-09-15T18:56:19.535Z,5.95
2022-09-15T18:58:51.317Z,5.90
2022-09-15T19:01:19.070Z,5.72
2022-09-15T19:03:46.578Z,5.60
2022-09-15T19:06:14.019Z,5.43
2022-09-15T19:08:43.343Z,4.80
2022-09-15T19:11:12.519Z,5.55
2022-09-15T19:14:04.921Z,5.90
2022-09-15T19:16:56.370Z,5.95
2022-09-15T19:19:21.509Z,5.78
2022-09-15T19:21:49.278Z,5.95
2022-09-15T19:24:17.343Z,5.63
2022-09-15T19:26:47.360Z,6.30
2022-09-15T19:29:15.682Z,5.10
2022-09-15T19:31:42.967Z,6.00
2022-09-15T19:34:10.320Z,5.60
2022-09-15T19:36:37.537Z,6.45
2022-09-15T19:39:06.387Z,6.32
2022-09-15T19:41:33.553Z,6.53
2022-09-15T19:44:02.454Z,6.38
2022-09-15T19:46:29.848Z,6.20
2022-09-15T19:48:59.089Z,6.47
2022-09-15T19:51:26.334Z,5.90
2022-09-15T19:53:58.208Z,5.35
2022-09-15T19:56:27.008Z,6.95
2022-09-15T19:58:56.127Z,6.45
2022-09-15T20:01:25.958Z,6.20
2022-09-15T20:06:40.897Z,6.35
2022-09-15T20:09:08.894Z,6.38
2022-09-15T20:11:36.617Z,6.53
2022-09-15T20:14:04.089Z,7.05
2022-09-15T20:16:31.447Z,7.28
2022-09-15T20:18:59.010Z,6.80
2022-09-15T20:21:49.418Z,6.60
2022-09-15T20:24:18.691Z,6.40
2022-09-15T20:26:46.352Z,6.65
2022-09-15T20:29:14.076Z,6.32
2022-09-15T20:31:41.536Z,7.03
2022-09-15T20:34:09.039Z,6.50
2022-09-15T20:36:39.098Z,6.50
2022-09-15T20:39:14.498Z,6.35
2022-09-15T20:41:45.255Z,6.22
2022-09-15T20:44:13.059Z,6.28
2022-09-15T20:46:40.789Z,6.00
2022-09-15T20:49:09.074Z,7.00
2022-09-15T20:51:36.388Z,6.18
2022-09-15T20:54:05.583Z,6.75
2022-09-15T20:56:35.360Z,6.78
2022-09-15T20:59:04.363Z,6.53
2022-09-15T21:01:37.463Z,6.90
2022-09-15T21:04:08.073Z,6.78
2022-09-15T21:06:37.620Z,7.07
2022-09-15T21:09:05.375Z,6.38
2022-09-15T21:11:33.765Z,6.35
2022-09-15T21:14:02.063Z,6.68
2022-09-15T21:16:29.808Z,6.88
2022-09-15T21:18:58.781Z,6.97
2022-09-15T21:21:30.422Z,6.30
2022-09-15T21:24:04.163Z,7.18
2022-09-15T21:27:00.461Z,6.63
2022-09-15T21:29:28.723Z,6.80
2022-09-15T21:31:58.413Z,6.57
2022-09-15T21:34:26.585Z,6.72
2022-09-15T21:36:53.966Z,6.85
2022-09-15T21:39:21.616Z,6.93
2022-09-15T21:41:50.509Z,6.97
2022-09-15T21:44:18.420Z,6.20
2022-09-15T21:46:47.374Z,6.50
2022-09-15T21:49:15.378Z,6.43
2022-09-15T21:51:42.845Z,7.25
2022-09-15T21:54:10.685Z,7.43
2022-09-15T21:56:38.333Z,7.05
2022-09-15T21:59:06.015Z,7.88
2022-09-15T22:01:33.671Z,7.80
2022-09-15T22:04:05.472Z,8.70
2022-09-15T22:06:40.677Z,8.82
2022-09-15T22:09:14.357Z,8.77
2022-09-15T22:11:42.150Z,9.13
2022-09-15T22:14:10.592Z,8.57
2022-09-15T22:16:41.833Z,8.88
2022-09-15T22:19:11.647Z,9.02
2022-09-15T22:21:42.237Z,8.55
2022-09-15T22:24:13.766Z,9.70
2022-09-15T22:26:42.718Z,10.02
2022-09-15T22:29:10.850Z,9.80
2022-09-15T22:31:38.702Z,10.10
2022-09-15T22:34:08.169Z,8.95
2022-09-15T22:36:35.628Z,9.02
2022-09-15T22:39:04.862Z,9.90
2022-09-15T22:41:35.757Z,8.32
2022-09-15T22:44:03.972Z,9.90
2022-09-15T22:46:31.507Z,8.65
2022-09-15T22:48:59.093Z,9.25
2022-09-15T22:51:27.521Z,9.77
2022-09-15T22:53:57.575Z,9.23
2022-09-15T22:56:26.853Z,9.57
2022-09-15T22:58:55.666Z,8.43
2022-09-15T23:01:27.206Z,9.90
2022-09-15T23:03:57.551Z,9.77
2022-09-15T23:06:26.930Z,9.80
2022-09-15T23:08:57.845Z,9.45
2022-09-15T23:11:26.994Z,10.40
2022-09-15T23:13:55.196Z,10.23
2022-09-15T23:16:24.439Z,10.63
2022-09-15T23:18:53.037Z,9.70
2022-09-15T23:21:20.814Z,9.52
2022-09-15T23:23:49.385Z,8.55
2022-09-15T23:26:18.764Z,8.90
2022-09-15T23:28:46.792Z,9.70
2022-09-15T23:31:14.695Z,8.82
2022-09-15T23:33:44.170Z,9.25
2022-09-15T23:36:13.765Z,8.82
2022-09-15T23:38:44.005Z,9.68
2022-09-15T23:41:13.449Z,10.07
2022-09-15T23:43:41.203Z,9.05
2022-09-15T23:46:09.222Z,8.75
2022-09-15T23:48:36.818Z,9.85
2022-09-15T23:51:05.714Z,10.57
2022-09-15T23:53:33.251Z,10.05
2022-09-15T23:56:00.680Z,9.82
2022-09-15T23:58:28.281Z,10.23
